Latest Weather Observations for Bendigo

IDV60801

Issued at 7:05 pm EDT Thursday 5 March 2015 (issued every 30 minutes, with the page automatically refreshed every 10 minutes)

About weather observations | Map of weather stations | Latest weather observations for VIC | Other Formats
Station Details ID: 081123 Name: BENDIGO AIRPORT Lat: -36.74 Lon: 144.33 Height: 208.0 m
Data from the previous 72 hours. | See also: Recent months at Bendigo
Date/Time
EDT
Temp
°C
App
Temp
°C
Dew
Point
Rel
Hum
%
Delta-T
°C
Wind Press
QNH
hPa
Press
MSL
hPa
Rain
since 9 am
mm
Dir
 
Spd
km/h
Gust
km/h
Spd
kts
Gust
kts
05/07:00pm 18.9 13.4 1.9 32 7.8 SSW 20 37 11 20 1015.2 1014.7 0.0
05/06:30pm 20.0 14.0 1.0 28 8.6 SW 22 35 12 19 1015.1 1014.6 0.0
05/06:00pm 20.2 13.8 1.1 28 8.7 SW 24 37 13 20 1014.9 1014.4 0.0
05/05:30pm 20.5 13.2 -0.2 25 9.2 SW 28 46 15 25 1014.9 1014.4 0.0
05/05:27pm 20.8 13.4 -0.5 24 9.5 SW 28 46 15 25 1014.9 1014.4 0.0
05/05:00pm 20.7 14.3 1.1 27 9.0 SW 24 41 13 22 1015.0 1014.5 0.0
05/04:35pm 21.2 13.7 1.0 26 9.3 SW 30 48 16 26 1015.0 1014.5 0.0
05/04:30pm 21.0 13.7 0.2 25 9.4 SW 28 44 15 24 1015.3 1014.8 0.0
05/04:14pm 20.6 13.6 -0.7 24 9.4 SW 26 46 14 25 1015.3 1014.8 0.0
05/04:00pm 20.5 13.9 -0.2 25 9.2 SSW 24 41 13 22 1015.6 1015.1 0.0
05/03:30pm 20.6 13.4 0.4 26 9.1 SW 28 39 15 21 1015.9 1015.4 0.0
05/03:00pm 20.1 14.1 1.0 28 8.7 SSW 22 33 12 18 1016.1 1015.6 0.0
05/02:30pm 20.7 14.1 2.0 29 8.7 SSW 26 41 14 22 1016.3 1015.8 0.0
05/02:00pm 19.8 13.8 1.3 29 8.5 SW 22 35 12 19 1016.6 1016.1 0.0
05/01:30pm 19.5 13.9 1.0 29 8.4 SSW 20 37 11 20 1017.1 1016.5 0.0
05/01:00pm 18.9 13.5 2.3 33 7.7 SSW 20 35 11 19 1017.3 1016.7 0.0
05/12:30pm 18.2 11.6 2.1 34 7.4 SW 26 39 14 21 1017.8 1017.2 0.0
05/12:00pm 18.0 11.8 2.3 35 7.2 SSW 24 35 13 19 1018.0 1017.4 0.0
05/11:30am 17.0 10.4 1.8 36 6.9 SW 26 41 14 22 1018.0 1017.4 0.0
05/11:02am 15.6 8.2 2.1 40 6.1 SW 30 48 16 26 1018.2 1017.6 0.0
05/11:00am 15.9 8.2 2.3 40 6.1 SSW 32 48 17 26 1018.2 1017.6 0.0
05/10:30am 15.2 8.9 3.7 46 5.3 SSW 26 43 14 23 1017.9 1017.3 0.0
05/10:00am 14.5 8.8 4.8 52 4.6 SSW 24 37 13 20 1017.7 1017.1 0.0
05/09:44am 13.5 6.9 4.1 53 4.3 SSW 28 46 15 25 1017.6 1017.0 0.0
05/09:30am 13.2 8.3 4.9 57 3.9 SSW 20 28 11 15 1017.4 1016.8 0.0
05/08:30am 11.3 7.4 5.2 66 2.8 SW 15 26 8 14 1016.6 1016.1 0.6
05/08:00am 10.9 7.3 5.0 67 2.7 SW 13 26 7 14 1016.3 1015.8 0.6
05/07:30am 10.5 6.1 4.6 67 2.7 SSW 17 32 9 17 1015.8 1015.3 0.6
05/07:00am 10.9 6.1 4.8 66 2.8 SSW 19 28 10 15 1015.0 1014.5 0.6
05/06:30am 11.2 5.5 5.1 66 2.8 SSW 24 39 13 21 1015.0 1014.5 0.6
05/06:00am 11.7 7.5 5.8 67 2.8 SSW 17 30 9 16 1014.6 1014.1 0.6
05/05:30am 12.1 5.8 5.7 65 3.0 SSW 28 48 15 26 1014.1 1013.5 0.6
05/05:22am 12.3 6.2 6.4 67 2.8 SSW 28 48 15 26 1013.8 1013.2 0.6
05/05:00am 12.6 6.7 7.5 71 2.5 SW 28 43 15 23 1013.3 1012.7 0.6
05/04:30am 12.7 5.1 9.0 78 1.9 SW 39 67 21 36 1012.8 1012.2 0.6
05/04:20am 13.9 8.7 10.1 78 2.0 SW 28 54 15 29 1012.3 1011.7 0.6
05/04:00am 14.0 9.9 11.3 84 1.5 WSW 24 39 13 21 1012.0 1011.4 0.6
05/03:52am 14.1 9.6 11.3 83 1.5 WSW 26 39 14 21 1011.7 1011.2 0.6
05/03:30am 14.2 10.1 12.6 90 0.9 WSW 26 39 14 21 1011.9 1011.3 0.0
05/03:23am 14.7 10.0 12.0 84 1.5 WSW 28 41 15 22 1011.5 1011.0 0.0
05/03:00am 16.6 12.9 10.0 65 3.5 W 20 30 11 16 1011.2 1010.7 0.0
05/02:30am 16.9 13.1 9.8 63 3.8 W 20 33 11 18 1011.2 1010.7 0.0
05/02:00am 17.1 13.4 9.5 61 4.0 W 19 30 10 16 1011.2 1010.7 0.0
05/01:30am 17.3 13.6 9.5 60 4.1 WSW 19 26 10 14 1011.4 1010.9 0.0
05/01:00am 17.3 13.6 9.5 60 4.1 W 19 26 10 14 1011.4 1010.9 0.0
05/12:30am 17.5 14.9 9.4 59 4.3 WNW 13 24 7 13 1011.3 1010.8 0.0
05/12:00am 17.9 14.0 9.3 57 4.5 W 20 32 11 17 1011.2 1010.7 0.0
 
Date/Time
EDT
Temp
°C
App
Temp
°C
Dew
Point
Rel
Hum
%
Delta-T
°C
Wind Press
QNH
hPa
Press
MSL
hPa
Rain
since 9 am
mm
Dir
 
Spd
km/h
Gust
km/h
Spd
kts
Gust
kts
04/11:30pm 18.3 14.4 9.4 56 4.7 W 20 28 11 15 1011.4 1010.9 0.0
04/11:00pm 18.9 14.2 9.4 54 5.1 W 24 35 13 19 1011.4 1010.9 0.0
04/10:30pm 19.2 15.4 9.1 52 5.4 W 19 32 10 17 1011.4 1010.9 0.0
04/10:00pm 19.8 16.0 9.1 50 5.7 W 19 28 10 15 1011.4 1010.9 0.0
04/09:30pm 20.3 16.3 8.9 48 6.1 W 20 30 11 16 1011.0 1010.5 0.0
04/09:00pm 20.9 17.3 8.5 45 6.6 W 17 28 9 15 1010.8 1010.3 0.0
04/08:30pm 21.5 17.8 8.1 42 7.1 WNW 17 35 9 19 1010.7 1010.2 0.0
04/08:00pm 22.4 18.3 7.8 39 7.7 W 19 28 10 15 1010.7 1010.2 0.0
04/07:30pm 23.3 18.5 7.4 36 8.4 W 22 33 12 18 1010.6 1010.1 0.0
04/07:00pm 24.0 18.3 6.7 33 9.0 WNW 26 39 14 21 1010.5 1010.0 0.0
04/06:30pm 24.9 19.6 6.6 31 9.6 WNW 24 39 13 21 1010.5 1010.0 0.0
04/06:00pm 25.6 20.8 5.8 28 10.3 W 20 35 11 19 1010.4 1009.9 0.0
04/05:30pm 26.3 21.4 5.3 26 10.8 W 20 35 11 19 1010.6 1010.1 0.0
04/05:00pm 26.5 21.4 4.3 24 11.3 W 20 33 11 18 1010.8 1010.3 0.0
04/04:30pm 26.1 21.2 2.1 21 11.7 NW 17 28 9 15 1011.1 1010.6 0.0
04/04:00pm 25.5 19.8 2.9 23 11.1 W 22 33 12 18 1011.4 1010.9 0.0
04/03:30pm 25.6 20.9 2.9 23 11.2 W 17 32 9 17 1012.1 1011.5 0.0
04/03:00pm 24.3 19.8 4.1 27 10.1 WNW 17 26 9 14 1012.6 1012.0 0.0
04/02:30pm 24.0 19.2 4.4 28 9.8 WSW 19 30 10 16 1013.1 1012.5 0.0
04/02:00pm 23.9 19.6 5.3 30 9.5 WSW 17 28 9 15 1013.5 1012.9 0.0
04/01:30pm 23.0 18.8 5.9 33 8.7 WSW 17 24 9 13 1013.9 1013.3 0.0
04/01:00pm 21.8 18.2 6.9 38 7.7 SW 15 20 8 11 1014.4 1013.8 0.0
04/12:30pm 21.3 17.3 6.8 39 7.5 W 17 26 9 14 1014.9 1014.4 0.0
04/12:00pm 20.2 17.3 8.2 46 6.3 W 13 20 7 11 1015.1 1014.6 0.0
04/11:30am 18.9 16.4 8.3 50 5.5 SW 11 24 6 13 1015.6 1015.1 0.0
04/11:00am 18.7 15.8 8.1 50 5.5 SW 13 19 7 10 1015.7 1015.2 0.0
04/10:30am 18.1 15.2 8.1 52 5.2 SW 13 20 7 11 1015.8 1015.3 0.0
04/10:00am 17.5 14.1 7.8 53 5.0 SW 15 20 8 11 1015.8 1015.3 0.0
04/09:30am 16.2 13.4 8.4 60 4.0 SSW 13 17 7 9 1015.9 1015.4 0.0
04/09:00am 15.0 11.9 8.9 67 3.1 SW 15 20 8 11 1015.8 1015.3 0.0
04/08:30am 12.8 12.8 9.8 82 1.6 CALM 0 0 0 0 1015.6 1015.1 0.0
04/08:00am 9.4 8.9 8.0 91 0.7 CALM 0 0 0 0 1015.3 1014.8 0.0
04/07:30am 7.5 6.7 6.4 93 0.5 CALM 0 0 0 0 1015.0 1014.5 0.0
04/07:00am 7.6 6.7 6.2 91 0.6 CALM 0 0 0 0 1014.8 1014.3 0.0
04/06:30am 8.1 7.3 6.6 90 0.7 CALM 0 0 0 0 1014.6 1014.1 0.0
04/06:00am 8.9 8.3 7.4 90 0.7 CALM 0 2 0 1 1014.5 1013.9 0.0
04/05:30am 9.2 8.6 7.6 90 0.8 CALM 0 0 0 0 1014.4 1013.8 0.0
04/05:00am 9.4 8.9 7.8 90 0.8 CALM 0 0 0 0 1014.6 1014.1 0.0
04/04:30am 9.8 9.3 7.7 87 1.0 CALM 0 0 0 0 1014.5 1013.9 0.0
04/04:00am 9.9 8.2 7.5 85 1.2 S 6 7 3 4 1014.4 1013.8 0.0
04/03:30am 10.5 9.6 7.9 84 1.3 SW 2 7 1 4 1014.3 1013.7 0.0
04/03:00am 11.0 9.4 8.2 83 1.4 S 6 9 3 5 1014.4 1013.8 0.0
04/02:30am 11.4 9.5 7.7 78 1.8 S 7 7 4 4 1014.9 1014.4 0.0
04/02:00am 13.1 11.5 8.2 72 2.5 SSW 6 9 3 5 1015.1 1014.6 0.0
04/01:30am 14.1 12.6 9.1 72 2.6 SSE 7 11 4 6 1015.2 1014.7 0.0
04/01:00am 14.5 12.2 8.9 69 2.9 SSE 11 15 6 8 1015.2 1014.7 0.0
04/12:30am 15.3 13.0 9.0 66 3.3 SSE 11 15 6 8 1015.2 1014.7 0.0
04/12:00am 16.2 12.8 9.2 63 3.7 SSE 17 20 9 11 1015.2 1014.7 0.0
 
Date/Time
EDT
Temp
°C
App
Temp
°C
Dew
Point
Rel
Hum
%
Delta-T
°C
Wind Press
QNH
hPa
Press
MSL
hPa
Rain
since 9 am
mm
Dir
 
Spd
km/h
Gust
km/h
Spd
kts
Gust
kts
03/11:30pm 17.0 13.7 9.7 62 3.9 SSE 17 24 9 13 1015.4 1014.9 0.0
03/11:00pm 17.7 14.5 10.1 61 4.1 SSE 17 20 9 11 1015.4 1014.9 0.0
03/10:30pm 18.9 15.7 9.9 56 4.8 SSE 17 22 9 12 1015.5 1015.0 0.0
03/10:00pm 19.9 16.0 9.5 51 5.6 SSE 20 28 11 15 1015.3 1014.8 0.0
03/09:30pm 20.7 17.9 7.0 41 7.0 SE 11 17 6 9 1014.9 1014.4 0.0
03/09:00pm 21.6 18.1 3.3 30 8.8 S 11 17 6 9 1014.6 1014.1 0.0
03/08:30pm 22.8 19.7 3.4 28 9.5 SSW 9 13 5 7 1014.2 1013.6 0.0
03/08:00pm 24.1 20.6 3.4 26 10.2 SSW 11 17 6 9 1013.7 1013.1 0.0
03/07:30pm 25.3 21.4 3.3 24 10.9 SSW 13 17 7 9 1013.5 1012.9 0.0
03/07:00pm 26.5 22.7 3.7 23 11.5 SSW 13 19 7 10 1013.4 1012.8 0.0
03/06:30pm 26.8 22.5 3.3 22 11.7 SSW 15 20 8 11 1013.4 1012.8 0.0
03/06:00pm 27.1 22.6 4.2 23 11.7 SSW 17 24 9 13 1013.4 1012.8 0.0
03/05:30pm 27.5 22.7 4.5 23 11.8 SW 19 26 10 14 1013.1 1012.5 0.0
03/05:00pm 28.1 23.9 3.7 21 12.4 WSW 15 24 8 13 1013.2 1012.6 0.0
03/04:30pm 28.1 23.9 3.7 21 12.4 WSW 15 26 8 14 1013.4 1012.8 0.0
03/04:00pm 28.0 23.6 5.0 23 11.9 SW 17 32 9 17 1013.6 1013.0 0.0
03/03:30pm 27.6 22.4 3.3 21 12.2 WSW 20 35 11 19 1014.0 1013.4 0.0
03/03:00pm 27.6 22.9 5.2 24 11.6 SW 19 30 10 16 1014.3 1013.7 0.0
03/02:30pm 27.8 24.3 5.4 24 11.7 W 13 20 7 11 1014.5 1013.9 0.0
03/02:00pm 28.0 23.5 6.2 25 11.5 WSW 19 32 10 17 1014.7 1014.2 0.0
03/01:30pm 25.7 21.8 7.3 31 9.8 WSW 17 28 9 15 1015.1 1014.6 0.0
03/01:00pm 26.2 22.2 6.8 29 10.3 WSW 17 24 9 13 1015.6 1015.1 0.0
03/12:30pm 25.0 23.8 9.7 38 8.5 ENE 6 11 3 6 1016.0 1015.5 0.0
03/12:00pm 23.5 21.9 8.8 39 7.9 S 7 13 4 7 1016.2 1015.7 0.0
03/11:30am 22.4 21.5 10.5 47 6.6 SSE 6 9 3 5 1016.3 1015.8 0.0
03/11:00am 21.3 20.0 11.1 52 5.7 SSE 9 15 5 8 1016.2 1015.7 0.0
03/10:30am 20.1 18.4 11.1 56 5.0 SSE 11 15 6 8 1016.3 1015.8 0.0
03/10:00am 19.3 17.6 11.1 59 4.5 SE 11 17 6 9 1016.3 1015.8 0.0
03/09:30am 19.0 16.7 11.6 62 4.1 SSE 15 22 8 12 1016.2 1015.7 0.0
03/09:00am 18.2 16.1 11.3 64 3.8 SSE 13 20 7 11 1015.9 1015.4 0.0
03/08:30am 17.6 15.4 10.9 65 3.6 SSE 13 19 7 10 1015.9 1015.4 0.0
03/08:00am 17.0 15.2 10.8 67 3.4 SSE 11 17 6 9 1015.8 1015.3 0.0
03/07:30am 17.1 14.0 10.2 64 3.7 SSE 17 20 9 11 1015.4 1014.9 0.0
03/07:00am 17.3 15.2 9.7 61 4.0 SSE 11 17 6 9 1015.0 1014.5 0.0
03/06:30am 17.5 14.5 9.4 59 4.3 SSE 15 19 8 10 1014.8 1014.3 0.0
03/06:00am 17.7 14.7 9.1 57 4.5 SSE 15 20 8 11 1014.2 1013.6 0.0
03/05:30am 17.9 13.5 9.0 56 4.7 SSE 22 32 12 17 1013.7 1013.1 0.0
03/05:00am 17.9 14.4 8.7 55 4.8 SSE 17 22 9 12 1013.8 1013.2 0.0
03/04:30am 18.1 14.3 8.9 55 4.8 S 19 26 10 14 1014.1 1013.5 0.0
03/04:00am 18.3 15.6 9.1 55 4.9 S 13 17 7 9 1014.1 1013.5 0.0
03/03:30am 18.5 14.4 8.7 53 5.1 SSE 20 28 11 15 1013.8 1013.2 0.0
03/03:00am 18.6 14.6 8.3 51 5.4 SSE 19 24 10 13 1013.6 1013.0 0.0
03/02:30am 19.0 15.1 8.6 51 5.5 SSE 19 24 10 13 1013.8 1013.2 0.0
03/02:00am 19.1 16.2 8.1 49 5.7 SSE 13 17 7 9 1014.3 1013.7 0.0
03/01:30am 19.3 15.5 5.7 41 6.8 SSE 15 19 8 10 1014.1 1013.5 0.0
03/01:00am 20.0 15.8 3.7 34 7.8 SSE 15 19 8 10 1014.0 1013.4 0.0
03/12:30am 19.6 15.9 2.5 32 8.0 SSE 11 13 6 7 1014.4 1013.8 0.0
03/12:00am 19.8 16.5 2.2 31 8.2 SSE 9 11 5 6 1014.4 1013.8 0.0
 
Date/Time
EDT
Temp
°C
App
Temp
°C
Dew
Point
Rel
Hum
%
Delta-T
°C
Wind Press
QNH
hPa
Press
MSL
hPa
Rain
since 9 am
mm
Dir
 
Spd
km/h
Gust
km/h
Spd
kts
Gust
kts
02/11:30pm 20.1 16.3 2.0 30 8.4 SSE 11 13 6 7 1014.3 1013.7 0.0
02/11:00pm 19.5 17.7 3.6 35 7.6 SSE 2 9 1 5 1014.4 1013.8 0.0
02/10:30pm 20.6 19.1 2.9 31 8.4 CALM 0 0 0 0 1014.9 1014.4 0.0
02/10:00pm 21.3 19.6 2.1 28 9.0 CALM 0 0 0 0 1014.8 1014.3 0.0
02/09:30pm 21.9 18.8 1.5 26 9.5 SSW 7 11 4 6 1014.5 1013.9 0.0
02/09:00pm 22.1 20.7 3.3 29 9.1 CALM 0 6 0 3 1014.4 1013.8 0.0
02/08:30pm 23.2 20.8 2.1 25 10.1 SW 4 7 2 4 1014.3 1013.7 0.0
02/08:00pm 23.8 20.8 2.0 24 10.4 SW 7 9 4 5 1014.1 1013.5 0.0
02/07:30pm 24.4 20.9 1.3 22 11.0 SSW 9 11 5 6 1013.5 1012.9 0.0

Other Formats:

Comma delimited format used in spreadsheet applications
http://www.bom.gov.au/fwo/IDV60801/IDV60801.94855.axf

JavaScript Object Notation format (JSON) in row-major order
http://www.bom.gov.au/fwo/IDV60801/IDV60801.94855.json